sensor_id;sensor_type;location;lat;lon;timestamp;temperature;humidity
35246;DHT22;21379;50.962;6.960;2022-07-04T00:01:41;16.80;99.90
35246;DHT22;21379;50.962;6.960;2022-07-04T00:04:09;16.80;99.90
35246;DHT22;21379;50.962;6.960;2022-07-04T00:06:36;16.80;99.90
35246;DHT22;21379;50.962;6.960;2022-07-04T00:09:03;16.80;99.90
35246;DHT22;21379;50.962;6.960;2022-07-04T00:11:31;16.80;99.90
35246;DHT22;21379;50.962;6.960;2022-07-04T00:13:57;16.70;99.90
35246;DHT22;21379;50.962;6.960;2022-07-04T00:16:24;16.70;99.90
35246;DHT22;21379;50.962;6.960;2022-07-04T00:18:51;16.60;99.90
35246;DHT22;21379;50.962;6.960;2022-07-04T00:21:19;16.70;99.90
35246;DHT22;21379;50.962;6.960;2022-07-04T00:23:46;16.70;99.90
35246;DHT22;21379;50.962;6.960;2022-07-04T00:26:14;16.60;99.90
35246;DHT22;21379;50.962;6.960;2022-07-04T00:28:41;16.60;99.90
35246;DHT22;21379;50.962;6.960;2022-07-04T00:31:08;16.60;99.90
35246;DHT22;21379;50.962;6.960;2022-07-04T00:33:35;16.60;99.90
35246;DHT22;21379;50.962;6.960;2022-07-04T00:36:02;16.60;99.90
35246;DHT22;21379;50.962;6.960;2022-07-04T00:38:31;16.50;99.90
35246;DHT22;21379;50.962;6.960;2022-07-04T00:40:57;16.50;99.90
35246;DHT22;21379;50.962;6.960;2022-07-04T00:43:26;16.50;99.90
35246;DHT22;21379;50.962;6.960;2022-07-04T00:45:53;16.40;99.90
35246;DHT22;21379;50.962;6.960;2022-07-04T00:48:20;16.40;99.90
35246;DHT22;21379;50.962;6.960;2022-07-04T00:50:48;16.40;99.90
35246;DHT22;21379;50.962;6.960;2022-07-04T00:53:15;16.30;99.90
35246;DHT22;21379;50.962;6.960;2022-07-04T00:55:44;16.30;99.90
35246;DHT22;21379;50.962;6.960;2022-07-04T00:58:13;16.30;99.90
35246;DHT22;21379;50.962;6.960;2022-07-04T01:00:40;16.20;99.90
35246;DHT22;21379;50.962;6.960;2022-07-04T01:03:08;16.20;99.90
35246;DHT22;21379;50.962;6.960;2022-07-04T01:05:34;16.10;99.90
35246;DHT22;21379;50.962;6.960;2022-07-04T01:08:02;16.00;99.90
35246;DHT22;21379;50.962;6.960;2022-07-04T01:10:29;16.00;99.90
35246;DHT22;21379;50.962;6.960;2022-07-04T01:12:57;16.00;99.90
35246;DHT22;21379;50.962;6.960;2022-07-04T01:15:24;15.90;99.90
35246;DHT22;21379;50.962;6.960;2022-07-04T01:17:51;15.90;99.90
35246;DHT22;21379;50.962;6.960;2022-07-04T01:20:20;15.90;99.90
35246;DHT22;21379;50.962;6.960;2022-07-04T01:22:48;15.80;99.90
35246;DHT22;21379;50.962;6.960;2022-07-04T01:25:15;15.80;99.90
35246;DHT22;21379;50.962;6.960;2022-07-04T01:27:42;15.80;99.90
35246;DHT22;21379;50.962;6.960;2022-07-04T01:30:10;15.70;99.90
35246;DHT22;21379;50.962;6.960;2022-07-04T01:32:37;15.80;99.90
35246;DHT22;21379;50.962;6.960;2022-07-04T01:35:04;15.70;99.90
35246;DHT22;21379;50.962;6.960;2022-07-04T01:37:33;15.70;99.90
35246;DHT22;21379;50.962;6.960;2022-07-04T01:40:00;15.60;99.90
35246;DHT22;21379;50.962;6.960;2022-07-04T01:42:26;15.60;99.90
35246;DHT22;21379;50.962;6.960;2022-07-04T01:44:53;15.50;99.90
35246;DHT22;21379;50.962;6.960;2022-07-04T01:47:20;15.50;99.90
35246;DHT22;21379;50.962;6.960;2022-07-04T01:49:47;15.50;99.90
35246;DHT22;21379;50.962;6.960;2022-07-04T01:52:14;15.50;99.90
35246;DHT22;21379;50.962;6.960;2022-07-04T01:54:42;15.50;99.90
35246;DHT22;21379;50.962;6.960;2022-07-04T01:57:09;15.50;99.90
35246;DHT22;21379;50.962;6.960;2022-07-04T01:59:38;15.40;99.90
35246;DHT22;21379;50.962;6.960;2022-07-04T02:02:22;15.40;99.90
35246;DHT22;21379;50.962;6.960;2022-07-04T02:04:49;15.40;99.90
35246;DHT22;21379;50.962;6.960;2022-07-04T02:07:16;15.30;99.90
35246;DHT22;21379;50.962;6.960;2022-07-04T02:09:45;15.30;99.90
35246;DHT22;21379;50.962;6.960;2022-07-04T02:12:11;15.20;99.90
35246;DHT22;21379;50.962;6.960;2022-07-04T02:14:56;15.20;99.90
35246;DHT22;21379;50.962;6.960;2022-07-04T02:17:23;15.20;99.90
35246;DHT22;21379;50.962;6.960;2022-07-04T02:19:50;15.20;99.90
35246;DHT22;21379;50.962;6.960;2022-07-04T02:22:16;15.10;99.90
35246;DHT22;21379;50.962;6.960;2022-07-04T02:24:45;15.10;99.90
35246;DHT22;21379;50.962;6.960;2022-07-04T02:27:12;15.00;99.90
35246;DHT22;21379;50.962;6.960;2022-07-04T02:29:39;15.00;99.90
35246;DHT22;21379;50.962;6.960;2022-07-04T02:32:07;14.90;99.90
35246;DHT22;21379;50.962;6.960;2022-07-04T02:34:33;15.00;99.90
35246;DHT22;21379;50.962;6.960;2022-07-04T02:37:00;15.00;99.90
35246;DHT22;21379;50.962;6.960;2022-07-04T02:39:27;15.00;99.90
35246;DHT22;21379;50.962;6.960;2022-07-04T02:41:55;15.00;99.90
35246;DHT22;21379;50.962;6.960;2022-07-04T02:44:22;15.00;99.90
35246;DHT22;21379;50.962;6.960;2022-07-04T02:46:49;15.00;99.90
35246;DHT22;21379;50.962;6.960;2022-07-04T02:49:16;14.90;99.90
35246;DHT22;21379;50.962;6.960;2022-07-04T02:51:43;14.90;99.90
35246;DHT22;21379;50.962;6.960;2022-07-04T02:54:10;14.80;99.90
35246;DHT22;21379;50.962;6.960;2022-07-04T02:56:37;14.80;99.90
35246;DHT22;21379;50.962;6.960;2022-07-04T02:59:05;14.80;99.90
35246;DHT22;21379;50.962;6.960;2022-07-04T03:01:32;14.70;99.90
35246;DHT22;21379;50.962;6.960;2022-07-04T03:03:59;14.60;99.90
35246;DHT22;21379;50.962;6.960;2022-07-04T03:06:26;14.60;99.90
35246;DHT22;21379;50.962;6.960;2022-07-04T03:08:53;14.50;99.90
35246;DHT22;21379;50.962;6.960;2022-07-04T03:11:20;14.50;99.90
35246;DHT22;21379;50.962;6.960;2022-07-04T03:13:46;14.50;99.90
35246;DHT22;21379;50.962;6.960;2022-07-04T03:16:15;14.50;99.90
35246;DHT22;21379;50.962;6.960;2022-07-04T03:18:42;14.50;99.90
35246;DHT22;21379;50.962;6.960;2022-07-04T03:21:09;14.50;99.90
35246;DHT22;21379;50.962;6.960;2022-07-04T03:23:35;14.50;99.90
35246;DHT22;21379;50.962;6.960;2022-07-04T03:26:03;14.50;99.90
35246;DHT22;21379;50.962;6.960;2022-07-04T03:28:29;14.60;99.90
35246;DHT22;21379;50.962;6.960;2022-07-04T03:30:56;14.60;99.90
35246;DHT22;21379;50.962;6.960;2022-07-04T03:33:25;14.60;99.90
35246;DHT22;21379;50.962;6.960;2022-07-04T03:35:52;14.50;99.90
35246;DHT22;21379;50.962;6.960;2022-07-04T03:38:19;14.50;99.90
35246;DHT22;21379;50.962;6.960;2022-07-04T03:40:46;14.50;99.90
35246;DHT22;21379;50.962;6.960;2022-07-04T03:43:13;14.50;99.90
35246;DHT22;21379;50.962;6.960;2022-07-04T03:45:40;14.40;99.90
35246;DHT22;21379;50.962;6.960;2022-07-04T03:48:06;14.40;99.90
35246;DHT22;21379;50.962;6.960;2022-07-04T03:50:35;14.40;99.90
35246;DHT22;21379;50.962;6.960;2022-07-04T03:53:01;14.40;99.90
35246;DHT22;21379;50.962;6.960;2022-07-04T03:55:28;14.40;99.90
35246;DHT22;21379;50.962;6.960;2022-07-04T03:57:55;14.40;99.90
35246;DHT22;21379;50.962;6.960;2022-07-04T04:00:22;14.30;99.90
35246;DHT22;21379;50.962;6.960;2022-07-04T04:02:49;14.30;99.90
35246;DHT22;21379;50.962;6.960;2022-07-04T04:05:16;14.40;99.90
35246;DHT22;21379;50.962;6.960;2022-07-04T04:07:59;14.30;99.90
35246;DHT22;21379;50.962;6.960;2022-07-04T04:10:28;14.40;99.90
35246;DHT22;21379;50.962;6.960;2022-07-04T04:12:56;14.30;99.90
35246;DHT22;21379;50.962;6.960;2022-07-04T04:15:23;14.30;99.90
35246;DHT22;21379;50.962;6.960;2022-07-04T04:17:50;14.30;99.90
35246;DHT22;21379;50.962;6.960;2022-07-04T04:20:17;14.30;99.90
35246;DHT22;21379;50.962;6.960;2022-07-04T04:22:44;14.40;99.90
35246;DHT22;21379;50.962;6.960;2022-07-04T04:25:12;14.40;99.90
35246;DHT22;21379;50.962;6.960;2022-07-04T04:27:39;14.40;99.90
35246;DHT22;21379;50.962;6.960;2022-07-04T04:30:07;14.40;99.90
35246;DHT22;21379;50.962;6.960;2022-07-04T04:32:34;14.40;99.90
35246;DHT22;21379;50.962;6.960;2022-07-04T04:35:01;14.50;99.90
35246;DHT22;21379;50.962;6.960;2022-07-04T04:37:28;14.50;99.90
35246;DHT22;21379;50.962;6.960;2022-07-04T04:39:55;14.50;99.90
35246;DHT22;21379;50.962;6.960;2022-07-04T04:42:23;14.50;99.90
35246;DHT22;21379;50.962;6.960;2022-07-04T04:44:50;14.60;99.90
35246;DHT22;21379;50.962;6.960;2022-07-04T04:47:17;14.60;99.90
35246;DHT22;21379;50.962;6.960;2022-07-04T04:49:44;14.70;99.90
35246;DHT22;21379;50.962;6.960;2022-07-04T04:52:11;14.80;99.90
35246;DHT22;21379;50.962;6.960;2022-07-04T04:54:38;14.90;99.90
35246;DHT22;21379;50.962;6.960;2022-07-04T04:57:05;14.90;99.90
35246;DHT22;21379;50.962;6.960;2022-07-04T04:59:33;15.00;99.90
35246;DHT22;21379;50.962;6.960;2022-07-04T05:02:01;15.00;99.90
35246;DHT22;21379;50.962;6.960;2022-07-04T05:04:28;15.10;99.90
35246;DHT22;21379;50.962;6.960;2022-07-04T05:06:55;15.10;99.90
35246;DHT22;21379;50.962;6.960;2022-07-04T05:09:22;15.20;99.90
35246;DHT22;21379;50.962;6.960;2022-07-04T05:11:49;15.30;99.90
35246;DHT22;21379;50.962;6.960;2022-07-04T05:14:16;15.30;99.90
35246;DHT22;21379;50.962;6.960;2022-07-04T05:16:44;15.40;99.90
35246;DHT22;21379;50.962;6.960;2022-07-04T05:19:11;15.40;99.90
35246;DHT22;21379;50.962;6.960;2022-07-04T05:21:38;15.50;99.90
35246;DHT22;21379;50.962;6.960;2022-07-04T05:24:05;15.60;99.90
35246;DHT22;21379;50.962;6.960;2022-07-04T05:26:33;15.70;99.90
35246;DHT22;21379;50.962;6.960;2022-07-04T05:29:00;15.80;99.90
35246;DHT22;21379;50.962;6.960;2022-07-04T05:31:27;15.90;99.90
35246;DHT22;21379;50.962;6.960;2022-07-04T05:33:55;16.00;99.90
35246;DHT22;21379;50.962;6.960;2022-07-04T05:36:22;16.10;99.90
35246;DHT22;21379;50.962;6.960;2022-07-04T05:38:49;16.10;99.90
35246;DHT22;21379;50.962;6.960;2022-07-04T05:41:16;16.20;99.90
35246;DHT22;21379;50.962;6.960;2022-07-04T05:43:43;16.30;99.90
35246;DHT22;21379;50.962;6.960;2022-07-04T05:46:10;16.30;99.90
35246;DHT22;21379;50.962;6.960;2022-07-04T05:48:37;16.40;99.90
35246;DHT22;21379;50.962;6.960;2022-07-04T05:51:05;16.60;99.90
35246;DHT22;21379;50.962;6.960;2022-07-04T05:53:33;16.70;99.90
35246;DHT22;21379;50.962;6.960;2022-07-04T05:56:00;16.80;99.90
35246;DHT22;21379;50.962;6.960;2022-07-04T05:58:27;16.80;99.90
35246;DHT22;21379;50.962;6.960;2022-07-04T06:00:54;17.00;99.90
35246;DHT22;21379;50.962;6.960;2022-07-04T06:03:21;17.10;99.90
35246;DHT22;21379;50.962;6.960;2022-07-04T06:05:48;17.10;99.90
35246;DHT22;21379;50.962;6.960;2022-07-04T06:08:17;17.20;99.90
35246;DHT22;21379;50.962;6.960;2022-07-04T06:10:44;17.40;99.90
35246;DHT22;21379;50.962;6.960;2022-07-04T06:13:11;17.50;99.90
35246;DHT22;21379;50.962;6.960;2022-07-04T06:15:38;17.50;99.90
35246;DHT22;21379;50.962;6.960;2022-07-04T06:18:05;17.60;99.90
35246;DHT22;21379;50.962;6.960;2022-07-04T06:20:32;17.70;99.90
35246;DHT22;21379;50.962;6.960;2022-07-04T06:22:58;17.70;99.90
35246;DHT22;21379;50.962;6.960;2022-07-04T06:25:27;17.70;99.90
35246;DHT22;21379;50.962;6.960;2022-07-04T06:27:53;17.90;99.90
35246;DHT22;21379;50.962;6.960;2022-07-04T06:30:20;18.00;99.90
35246;DHT22;21379;50.962;6.960;2022-07-04T06:32:49;18.10;99.90
35246;DHT22;21379;50.962;6.960;2022-07-04T06:35:19;18.30;99.90
35246;DHT22;21379;50.962;6.960;2022-07-04T06:38:04;18.30;99.90
35246;DHT22;21379;50.962;6.960;2022-07-04T06:40:33;18.30;99.90
35246;DHT22;21379;50.962;6.960;2022-07-04T06:43:00;18.40;99.90
35246;DHT22;21379;50.962;6.960;2022-07-04T06:45:27;18.60;99.90
35246;DHT22;21379;50.962;6.960;2022-07-04T06:47:54;18.70;99.90
35246;DHT22;21379;50.962;6.960;2022-07-04T06:50:21;18.70;99.90
35246;DHT22;21379;50.962;6.960;2022-07-04T06:52:48;18.90;99.90
35246;DHT22;21379;50.962;6.960;2022-07-04T06:55:18;18.90;99.90
35246;DHT22;21379;50.962;6.960;2022-07-04T06:57:46;19.00;99.90
35246;DHT22;21379;50.962;6.960;2022-07-04T07:00:14;19.20;99.90
35246;DHT22;21379;50.962;6.960;2022-07-04T07:02:41;19.40;99.90
35246;DHT22;21379;50.962;6.960;2022-07-04T07:05:08;19.60;99.90
35246;DHT22;21379;50.962;6.960;2022-07-04T07:07:35;19.70;99.90
35246;DHT22;21379;50.962;6.960;2022-07-04T07:10:02;19.80;99.90
35246;DHT22;21379;50.962;6.960;2022-07-04T07:12:32;19.70;99.90
35246;DHT22;21379;50.962;6.960;2022-07-04T07:15:00;19.90;99.90
35246;DHT22;21379;50.962;6.960;2022-07-04T07:17:28;19.70;99.90
35246;DHT22;21379;50.962;6.960;2022-07-04T07:19:55;20.00;99.90
35246;DHT22;21379;50.962;6.960;2022-07-04T07:22:22;20.10;99.90
35246;DHT22;21379;50.962;6.960;2022-07-04T07:24:49;20.00;99.90
35246;DHT22;21379;50.962;6.960;2022-07-04T07:27:16;20.00;99.90
35246;DHT22;21379;50.962;6.960;2022-07-04T07:29:43;20.10;99.90
35246;DHT22;21379;50.962;6.960;2022-07-04T07:32:12;20.30;99.90
35246;DHT22;21379;50.962;6.960;2022-07-04T07:34:39;20.20;99.90
35246;DHT22;21379;50.962;6.960;2022-07-04T07:37:07;20.30;99.90
35246;DHT22;21379;50.962;6.960;2022-07-04T07:39:34;20.50;99.90
35246;DHT22;21379;50.962;6.960;2022-07-04T07:42:01;20.40;99.90
35246;DHT22;21379;50.962;6.960;2022-07-04T07:44:28;20.70;99.90
35246;DHT22;21379;50.962;6.960;2022-07-04T07:46:55;20.80;99.90
35246;DHT22;21379;50.962;6.960;2022-07-04T07:49:23;20.70;99.90
35246;DHT22;21379;50.962;6.960;2022-07-04T07:51:50;20.60;99.90
35246;DHT22;21379;50.962;6.960;2022-07-04T07:54:17;20.80;99.90
35246;DHT22;21379;50.962;6.960;2022-07-04T07:56:44;21.10;99.90
35246;DHT22;21379;50.962;6.960;2022-07-04T07:59:11;20.90;99.90
35246;DHT22;21379;50.962;6.960;2022-07-04T08:01:38;20.70;99.90
35246;DHT22;21379;50.962;6.960;2022-07-04T08:04:05;20.70;99.90
35246;DHT22;21379;50.962;6.960;2022-07-04T08:06:50;20.70;99.90
35246;DHT22;21379;50.962;6.960;2022-07-04T08:09:17;21.20;99.90
35246;DHT22;21379;50.962;6.960;2022-07-04T08:11:44;20.90;99.90
35246;DHT22;21379;50.962;6.960;2022-07-04T08:14:11;21.10;99.90
35246;DHT22;21379;50.962;6.960;2022-07-04T08:16:38;21.30;99.90
35246;DHT22;21379;50.962;6.960;2022-07-04T08:19:06;21.40;99.90
35246;DHT22;21379;50.962;6.960;2022-07-04T08:21:33;21.40;99.90
35246;DHT22;21379;50.962;6.960;2022-07-04T08:24:01;21.30;99.90
35246;DHT22;21379;50.962;6.960;2022-07-04T08:26:28;21.60;99.90
35246;DHT22;21379;50.962;6.960;2022-07-04T08:28:55;21.40;99.90
35246;DHT22;21379;50.962;6.960;2022-07-04T08:31:23;21.70;99.90
35246;DHT22;21379;50.962;6.960;2022-07-04T08:33:50;21.60;99.90
35246;DHT22;21379;50.962;6.960;2022-07-04T08:36:18;21.80;99.90
35246;DHT22;21379;50.962;6.960;2022-07-04T08:38:45;22.00;99.90
35246;DHT22;21379;50.962;6.960;2022-07-04T08:41:15;22.30;99.90
35246;DHT22;21379;50.962;6.960;2022-07-04T08:43:42;22.60;99.90
35246;DHT22;21379;50.962;6.960;2022-07-04T08:46:12;22.90;99.90
35246;DHT22;21379;50.962;6.960;2022-07-04T08:48:43;22.90;99.90
35246;DHT22;21379;50.962;6.960;2022-07-04T08:51:21;23.10;99.90
35246;DHT22;21379;50.962;6.960;2022-07-04T08:53:52;22.80;99.90
35246;DHT22;21379;50.962;6.960;2022-07-04T08:56:24;22.30;99.90
35246;DHT22;21379;50.962;6.960;2022-07-04T08:59:09;23.00;99.90
35246;DHT22;21379;50.962;6.960;2022-07-04T09:01:39;22.60;99.90
35246;DHT22;21379;50.962;6.960;2022-07-04T09:04:08;22.70;99.90
35246;DHT22;21379;50.962;6.960;2022-07-04T09:06:35;23.60;99.90
35246;DHT22;21379;50.962;6.960;2022-07-04T09:09:02;23.60;99.90
35246;DHT22;21379;50.962;6.960;2022-07-04T09:11:31;24.00;99.90
35246;DHT22;21379;50.962;6.960;2022-07-04T09:14:49;23.80;99.90
35246;DHT22;21379;50.962;6.960;2022-07-04T09:17:17;23.20;99.50
35246;DHT22;21379;50.962;6.960;2022-07-04T09:19:44;23.10;99.90
35246;DHT22;21379;50.962;6.960;2022-07-04T09:22:11;23.50;99.60
35246;DHT22;21379;50.962;6.960;2022-07-04T09:24:44;24.10;99.90
35246;DHT22;21379;50.962;6.960;2022-07-04T09:27:11;24.40;98.80
35246;DHT22;21379;50.962;6.960;2022-07-04T09:29:52;24.40;98.50
35246;DHT22;21379;50.962;6.960;2022-07-04T09:32:26;24.30;99.00
35246;DHT22;21379;50.962;6.960;2022-07-04T09:34:59;23.70;97.60
35246;DHT22;21379;50.962;6.960;2022-07-04T09:37:33;23.70;99.90
35246;DHT22;21379;50.962;6.960;2022-07-04T09:40:02;23.80;98.70
35246;DHT22;21379;50.962;6.960;2022-07-04T09:42:35;24.10;97.90
35246;DHT22;21379;50.962;6.960;2022-07-04T09:45:07;23.90;99.90
35246;DHT22;21379;50.962;6.960;2022-07-04T09:47:34;24.20;99.90
35246;DHT22;21379;50.962;6.960;2022-07-04T09:50:04;24.30;97.90
35246;DHT22;21379;50.962;6.960;2022-07-04T09:52:31;24.80;99.70
35246;DHT22;21379;50.962;6.960;2022-07-04T09:54:59;24.30;98.40
35246;DHT22;21379;50.962;6.960;2022-07-04T09:57:29;24.40;97.10
35246;DHT22;21379;50.962;6.960;2022-07-04T10:00:17;24.30;97.10
35246;DHT22;21379;50.962;6.960;2022-07-04T10:02:45;24.40;97.80
35246;DHT22;21379;50.962;6.960;2022-07-04T10:05:12;24.60;98.30
35246;DHT22;21379;50.962;6.960;2022-07-04T10:07:39;24.40;97.50
35246;DHT22;21379;50.962;6.960;2022-07-04T10:10:28;24.60;97.90
35246;DHT22;21379;50.962;6.960;2022-07-04T10:12:57;24.70;97.40
35246;DHT22;21379;50.962;6.960;2022-07-04T10:15:25;24.90;96.00
35246;DHT22;21379;50.962;6.960;2022-07-04T10:17:52;25.40;99.50
35246;DHT22;21379;50.962;6.960;2022-07-04T10:20:19;25.50;98.50
35246;DHT22;21379;50.962;6.960;2022-07-04T10:22:47;25.00;97.10
35246;DHT22;21379;50.962;6.960;2022-07-04T10:25:14;24.40;96.30
35246;DHT22;21379;50.962;6.960;2022-07-04T10:27:41;24.40;96.80
35246;DHT22;21379;50.962;6.960;2022-07-04T10:30:12;24.30;96.10
35246;DHT22;21379;50.962;6.960;2022-07-04T10:32:43;24.00;95.90
35246;DHT22;21379;50.962;6.960;2022-07-04T10:35:14;24.60;97.20
35246;DHT22;21379;50.962;6.960;2022-07-04T10:38:01;24.90;97.10
35246;DHT22;21379;50.962;6.960;2022-07-04T10:40:41;25.20;97.40
35246;DHT22;21379;50.962;6.960;2022-07-04T10:43:39;25.80;98.50
35246;DHT22;21379;50.962;6.960;2022-07-04T10:46:23;26.00;94.30
35246;DHT22;21379;50.962;6.960;2022-07-04T10:48:52;25.70;95.00
35246;DHT22;21379;50.962;6.960;2022-07-04T10:51:33;25.50;93.60
35246;DHT22;21379;50.962;6.960;2022-07-04T10:54:01;25.60;94.20
35246;DHT22;21379;50.962;6.960;2022-07-04T10:56:35;25.30;93.60
35246;DHT22;21379;50.962;6.960;2022-07-04T10:59:07;25.40;94.40
35246;DHT22;21379;50.962;6.960;2022-07-04T11:01:35;25.40;94.40
35246;DHT22;21379;50.962;6.960;2022-07-04T11:04:03;25.10;94.20
35246;DHT22;21379;50.962;6.960;2022-07-04T11:06:49;25.20;94.40
35246;DHT22;21379;50.962;6.960;2022-07-04T11:09:18;25.30;96.00
35246;DHT22;21379;50.962;6.960;2022-07-04T11:11:50;25.90;93.80
35246;DHT22;21379;50.962;6.960;2022-07-04T11:14:31;26.10;93.80
35246;DHT22;21379;50.962;6.960;2022-07-04T11:16:58;26.00;93.20
35246;DHT22;21379;50.962;6.960;2022-07-04T11:19:26;26.10;94.90
35246;DHT22;21379;50.962;6.960;2022-07-04T11:21:54;26.00;93.80
35246;DHT22;21379;50.962;6.960;2022-07-04T11:24:21;26.20;93.50
35246;DHT22;21379;50.962;6.960;2022-07-04T11:26:48;26.30;93.80
35246;DHT22;21379;50.962;6.960;2022-07-04T11:29:15;26.20;94.60
35246;DHT22;21379;50.962;6.960;2022-07-04T11:31:44;26.60;94.10
35246;DHT22;21379;50.962;6.960;2022-07-04T11:34:11;26.10;93.40
35246;DHT22;21379;50.962;6.960;2022-07-04T11:36:41;25.80;93.80
35246;DHT22;21379;50.962;6.960;2022-07-04T11:39:09;25.30;93.60
35246;DHT22;21379;50.962;6.960;2022-07-04T11:41:38;24.90;94.20
35246;DHT22;21379;50.962;6.960;2022-07-04T11:44:24;25.40;94.40
35246;DHT22;21379;50.962;6.960;2022-07-04T11:47:11;25.60;93.40
35246;DHT22;21379;50.962;6.960;2022-07-04T11:49:44;25.80;92.80
35246;DHT22;21379;50.962;6.960;2022-07-04T11:52:12;25.20;92.80
35246;DHT22;21379;50.962;6.960;2022-07-04T11:54:40;25.10;93.30
35246;DHT22;21379;50.962;6.960;2022-07-04T11:57:15;24.90;93.60
35246;DHT22;21379;50.962;6.960;2022-07-04T11:59:42;24.70;93.90
35246;DHT22;21379;50.962;6.960;2022-07-04T12:02:11;24.30;95.00
35246;DHT22;21379;50.962;6.960;2022-07-04T12:04:39;24.10;95.50
35246;DHT22;21379;50.962;6.960;2022-07-04T12:07:12;24.30;97.20
35246;DHT22;21379;50.962;6.960;2022-07-04T12:09:40;24.30;94.50
35246;DHT22;21379;50.962;6.960;2022-07-04T12:12:08;24.80;94.20
35246;DHT22;21379;50.962;6.960;2022-07-04T12:14:35;25.50;95.00
35246;DHT22;21379;50.962;6.960;2022-07-04T12:17:10;25.90;93.60
35246;DHT22;21379;50.962;6.960;2022-07-04T12:19:37;26.20;93.80
35246;DHT22;21379;50.962;6.960;2022-07-04T12:22:04;26.20;94.20
35246;DHT22;21379;50.962;6.960;2022-07-04T12:24:42;26.50;93.40
35246;DHT22;21379;50.962;6.960;2022-07-04T12:27:17;26.50;92.20
35246;DHT22;21379;50.962;6.960;2022-07-04T12:29:48;26.40;92.20
35246;DHT22;21379;50.962;6.960;2022-07-04T12:32:16;26.50;92.30
35246;DHT22;21379;50.962;6.960;2022-07-04T12:34:44;26.20;92.90
35246;DHT22;21379;50.962;6.960;2022-07-04T12:37:12;24.60;92.30
35246;DHT22;21379;50.962;6.960;2022-07-04T12:39:42;24.20;93.40
35246;DHT22;21379;50.962;6.960;2022-07-04T12:42:12;23.90;93.80
35246;DHT22;21379;50.962;6.960;2022-07-04T12:44:40;23.20;92.80
35246;DHT22;21379;50.962;6.960;2022-07-04T12:47:08;23.30;93.80
35246;DHT22;21379;50.962;6.960;2022-07-04T12:49:36;23.60;93.60
35246;DHT22;21379;50.962;6.960;2022-07-04T12:52:07;23.50;93.70
35246;DHT22;21379;50.962;6.960;2022-07-04T12:54:35;23.50;93.50
35246;DHT22;21379;50.962;6.960;2022-07-04T12:57:07;23.50;93.90
35246;DHT22;21379;50.962;6.960;2022-07-04T12:59:34;24.00;94.30
35246;DHT22;21379;50.962;6.960;2022-07-04T13:02:02;24.60;92.80
35246;DHT22;21379;50.962;6.960;2022-07-04T13:04:29;25.00;92.00
35246;DHT22;21379;50.962;6.960;2022-07-04T13:06:59;25.20;92.70
35246;DHT22;21379;50.962;6.960;2022-07-04T13:09:26;25.90;93.60
35246;DHT22;21379;50.962;6.960;2022-07-04T13:11:53;26.40;92.90
35246;DHT22;21379;50.962;6.960;2022-07-04T13:14:39;26.00;91.90
35246;DHT22;21379;50.962;6.960;2022-07-04T13:17:06;25.90;92.70
35246;DHT22;21379;50.962;6.960;2022-07-04T13:19:33;25.70;91.90
35246;DHT22;21379;50.962;6.960;2022-07-04T13:22:00;25.70;92.10
35246;DHT22;21379;50.962;6.960;2022-07-04T13:24:27;26.40;93.30
35246;DHT22;21379;50.962;6.960;2022-07-04T13:26:54;27.30;92.00
35246;DHT22;21379;50.962;6.960;2022-07-04T13:29:21;27.50;91.50
35246;DHT22;21379;50.962;6.960;2022-07-04T13:31:50;26.70;91.00
35246;DHT22;21379;50.962;6.960;2022-07-04T13:34:17;26.20;91.70
35246;DHT22;21379;50.962;6.960;2022-07-04T13:36:44;26.70;93.40
35246;DHT22;21379;50.962;6.960;2022-07-04T13:39:12;26.50;91.30
35246;DHT22;21379;50.962;6.960;2022-07-04T13:41:39;26.00;90.70
35246;DHT22;21379;50.962;6.960;2022-07-04T13:44:06;26.20;92.70
35246;DHT22;21379;50.962;6.960;2022-07-04T13:46:34;26.20;91.10
35246;DHT22;21379;50.962;6.960;2022-07-04T13:49:04;25.50;91.80
35246;DHT22;21379;50.962;6.960;2022-07-04T13:51:33;25.40;90.50
35246;DHT22;21379;50.962;6.960;2022-07-04T13:54:01;25.10;91.40
35246;DHT22;21379;50.962;6.960;2022-07-04T13:56:28;24.90;91.70
35246;DHT22;21379;50.962;6.960;2022-07-04T13:58:55;24.80;92.70
35246;DHT22;21379;50.962;6.960;2022-07-04T14:01:23;24.40;93.20
35246;DHT22;21379;50.962;6.960;2022-07-04T14:03:50;24.40;93.40
35246;DHT22;21379;50.962;6.960;2022-07-04T14:06:19;24.60;92.50
35246;DHT22;21379;50.962;6.960;2022-07-04T14:08:46;25.30;92.70
35246;DHT22;21379;50.962;6.960;2022-07-04T14:11:13;25.70;91.10
35246;DHT22;21379;50.962;6.960;2022-07-04T14:13:40;26.60;90.80
35246;DHT22;21379;50.962;6.960;2022-07-04T14:16:07;27.00;90.50
35246;DHT22;21379;50.962;6.960;2022-07-04T14:18:34;26.80;91.00
35246;DHT22;21379;50.962;6.960;2022-07-04T14:21:01;26.70;89.90
35246;DHT22;21379;50.962;6.960;2022-07-04T14:23:30;25.90;90.00
35246;DHT22;21379;50.962;6.960;2022-07-04T14:26:12;25.50;90.20
35246;DHT22;21379;50.962;6.960;2022-07-04T14:28:39;25.60;90.80
35246;DHT22;21379;50.962;6.960;2022-07-04T14:31:06;26.50;91.80
35246;DHT22;21379;50.962;6.960;2022-07-04T14:33:34;26.40;90.00
35246;DHT22;21379;50.962;6.960;2022-07-04T14:36:01;26.00;89.60
35246;DHT22;21379;50.962;6.960;2022-07-04T14:38:29;25.80;89.30
35246;DHT22;21379;50.962;6.960;2022-07-04T14:40:56;25.50;90.40
35246;DHT22;21379;50.962;6.960;2022-07-04T14:43:38;25.40;90.80
35246;DHT22;21379;50.962;6.960;2022-07-04T14:46:06;24.70;91.00
35246;DHT22;21379;50.962;6.960;2022-07-04T14:48:33;24.60;92.20
35246;DHT22;21379;50.962;6.960;2022-07-04T14:51:00;24.80;90.90
35246;DHT22;21379;50.962;6.960;2022-07-04T14:53:27;25.90;91.50
35246;DHT22;21379;50.962;6.960;2022-07-04T14:55:55;26.20;89.50
35246;DHT22;21379;50.962;6.960;2022-07-04T14:58:22;26.50;90.30
35246;DHT22;21379;50.962;6.960;2022-07-04T15:00:49;27.20;88.60
35246;DHT22;21379;50.962;6.960;2022-07-04T15:03:16;27.20;87.70
35246;DHT22;21379;50.962;6.960;2022-07-04T15:05:43;26.80;86.70
35246;DHT22;21379;50.962;6.960;2022-07-04T15:08:10;26.60;87.30
35246;DHT22;21379;50.962;6.960;2022-07-04T15:10:37;26.20;86.20
35246;DHT22;21379;50.962;6.960;2022-07-04T15:13:06;25.70;85.60
35246;DHT22;21379;50.962;6.960;2022-07-04T15:15:33;25.60;87.80
35246;DHT22;21379;50.962;6.960;2022-07-04T15:18:02;26.00;89.60
35246;DHT22;21379;50.962;6.960;2022-07-04T15:20:29;26.30;89.60
35246;DHT22;21379;50.962;6.960;2022-07-04T15:23:13;26.20;87.70
35246;DHT22;21379;50.962;6.960;2022-07-04T15:25:57;26.20;87.40
35246;DHT22;21379;50.962;6.960;2022-07-04T15:28:25;25.60;87.50
35246;DHT22;21379;50.962;6.960;2022-07-04T15:30:52;25.40;87.50
35246;DHT22;21379;50.962;6.960;2022-07-04T15:33:20;25.30;87.90
35246;DHT22;21379;50.962;6.960;2022-07-04T15:35:53;25.40;88.80
35246;DHT22;21379;50.962;6.960;2022-07-04T15:38:20;25.00;88.40
35246;DHT22;21379;50.962;6.960;2022-07-04T15:40:47;24.80;89.70